createdAt,value
2023-01-09T00:00:06.648Z,1.80
2023-01-09T00:01:06.604Z,1.90
2023-01-09T00:02:06.651Z,2.00
2023-01-09T00:03:06.557Z,1.90
2023-01-09T00:04:06.601Z,2.10
2023-01-09T00:05:06.531Z,1.90
2023-01-09T00:06:06.548Z,1.70
2023-01-09T00:07:06.509Z,1.70
2023-01-09T00:08:06.516Z,2.30
2023-01-09T00:09:06.524Z,1.90
2023-01-09T00:10:06.480Z,2.00
2023-01-09T00:11:06.492Z,2.00
2023-01-09T00:12:06.455Z,2.00
2023-01-09T00:13:06.453Z,1.80
2023-01-09T00:14:06.442Z,2.10
2023-01-09T00:15:06.428Z,1.90
2023-01-09T00:16:06.437Z,1.90
2023-01-09T00:17:06.399Z,2.30
2023-01-09T00:18:06.400Z,2.10
2023-01-09T00:19:06.383Z,2.10
2023-01-09T00:20:06.377Z,2.50
2023-01-09T00:21:06.390Z,1.80
2023-01-09T00:22:06.383Z,1.90
2023-01-09T00:23:06.337Z,2.10
2023-01-09T00:24:06.325Z,2.00
2023-01-09T00:25:06.322Z,1.90
2023-01-09T00:26:06.332Z,1.90
2023-01-09T00:27:06.298Z,1.70
2023-01-09T00:28:06.284Z,1.90
2023-01-09T00:29:06.284Z,2.40
2023-01-09T00:30:06.261Z,2.00
2023-01-09T00:31:06.314Z,2.00
2023-01-09T00:32:06.235Z,2.20
2023-01-09T00:33:06.230Z,2.40
2023-01-09T00:34:06.226Z,2.00
2023-01-09T00:35:06.216Z,2.50
2023-01-09T00:36:06.261Z,2.40
2023-01-09T00:37:06.175Z,2.20
2023-01-09T00:38:06.173Z,2.50
2023-01-09T00:39:06.162Z,2.20
2023-01-09T00:40:06.154Z,3.00
2023-01-09T00:41:06.151Z,3.00
2023-01-09T00:42:06.121Z,2.90
2023-01-09T00:43:06.117Z,2.80
2023-01-09T00:44:06.099Z,2.80
2023-01-09T00:45:06.087Z,2.60
2023-01-09T00:46:06.127Z,2.90
2023-01-09T00:47:06.072Z,3.10
2023-01-09T00:48:06.067Z,3.20
2023-01-09T00:49:06.057Z,3.00
2023-01-09T00:50:06.052Z,2.90
2023-01-09T00:51:06.040Z,2.90
2023-01-09T00:52:06.016Z,3.00
2023-01-09T00:53:05.995Z,3.20
2023-01-09T00:54:06.000Z,3.00
2023-01-09T00:55:05.978Z,2.70
2023-01-09T00:56:05.990Z,2.60
2023-01-09T00:57:05.955Z,3.40
2023-01-09T00:58:05.955Z,2.70
2023-01-09T00:59:05.943Z,2.90
2023-01-09T01:00:05.943Z,3.40
2023-01-09T01:01:06.066Z,3.40
2023-01-09T01:02:06.118Z,3.10
2023-01-09T01:03:06.000Z,3.00
2023-01-09T01:04:05.895Z,3.10
2023-01-09T01:05:05.871Z,3.00
2023-01-09T01:06:05.895Z,3.10
2023-01-09T01:07:05.853Z,3.00
2023-01-09T01:08:05.842Z,3.40
2023-01-09T01:09:05.834Z,3.40
2023-01-09T01:10:05.816Z,3.20
2023-01-09T01:11:05.822Z,2.90
2023-01-09T01:12:05.798Z,3.10
2023-01-09T01:13:05.805Z,3.40
2023-01-09T01:14:05.777Z,3.50
2023-01-09T01:15:05.757Z,3.90
2023-01-09T01:16:05.773Z,3.10
2023-01-09T01:17:05.758Z,3.20
2023-01-09T01:18:05.721Z,3.40
2023-01-09T01:19:05.750Z,3.80
2023-01-09T01:20:05.738Z,3.30
2023-01-09T01:21:05.715Z,4.10
2023-01-09T01:22:05.682Z,3.60
2023-01-09T01:23:05.678Z,3.90
2023-01-09T01:24:05.674Z,4.10
2023-01-09T01:25:05.651Z,3.70
2023-01-09T01:26:05.657Z,3.50
2023-01-09T01:27:05.629Z,3.70
2023-01-09T01:28:05.618Z,3.80
2023-01-09T01:29:05.617Z,3.90
2023-01-09T01:30:05.593Z,4.00
2023-01-09T01:31:05.649Z,3.70
2023-01-09T01:32:05.593Z,3.70
2023-01-09T01:33:05.560Z,4.20
2023-01-09T01:34:05.563Z,4.20
2023-01-09T01:35:05.553Z,3.90
2023-01-09T01:36:05.553Z,4.00
2023-01-09T01:37:05.529Z,4.20
2023-01-09T01:38:05.520Z,4.30
2023-01-09T01:39:05.498Z,3.40
2023-01-09T01:40:05.485Z,4.40
2023-01-09T01:41:05.491Z,3.90
2023-01-09T01:42:05.459Z,4.00
2023-01-09T01:43:05.453Z,3.90
2023-01-09T01:44:05.438Z,3.60
2023-01-09T01:45:05.455Z,4.00
2023-01-09T01:46:05.477Z,4.40
2023-01-09T01:47:05.417Z,4.20
2023-01-09T01:48:05.398Z,4.20
2023-01-09T01:49:05.388Z,4.70
2023-01-09T01:50:05.382Z,4.10
2023-01-09T01:51:05.367Z,4.10
2023-01-09T01:52:05.358Z,3.70
2023-01-09T01:53:05.343Z,3.70
2023-01-09T01:54:05.337Z,4.20
2023-01-09T01:55:05.334Z,4.70
2023-01-09T01:56:05.301Z,4.20
2023-01-09T01:57:05.310Z,3.90
2023-01-09T01:58:05.300Z,4.30
2023-01-09T01:59:05.310Z,4.20
2023-01-09T02:00:05.278Z,4.20
2023-01-09T02:01:05.343Z,4.40
2023-01-09T02:02:05.515Z,3.80
2023-01-09T02:03:05.358Z,4.50
2023-01-09T02:04:05.224Z,4.20
2023-01-09T02:05:05.247Z,4.40
2023-01-09T02:06:05.196Z,4.60
2023-01-09T02:07:05.209Z,4.60
2023-01-09T02:08:05.175Z,4.80
2023-01-09T02:09:05.167Z,4.70
2023-01-09T02:10:05.152Z,4.30
2023-01-09T02:11:05.140Z,4.00
2023-01-09T02:12:05.141Z,4.30
2023-01-09T02:13:05.133Z,4.40
2023-01-09T02:14:05.111Z,4.80
2023-01-09T02:15:05.109Z,4.40
2023-01-09T02:16:05.123Z,4.30
2023-01-09T02:17:05.215Z,4.60
2023-01-09T02:18:05.066Z,4.40
2023-01-09T02:19:05.063Z,4.20
2023-01-09T02:20:05.048Z,4.70
2023-01-09T02:21:05.030Z,4.60
2023-01-09T02:22:05.034Z,4.10
2023-01-09T02:23:05.007Z,4.60
2023-01-09T02:24:05.001Z,4.00
2023-01-09T02:25:04.989Z,4.00
2023-01-09T02:26:04.986Z,3.60
2023-01-09T02:27:04.982Z,3.80
2023-01-09T02:28:11.561Z,4.70
2023-01-09T02:29:04.942Z,3.90
2023-01-09T02:30:04.944Z,3.80
2023-01-09T02:31:04.916Z,3.80
2023-01-09T02:32:04.930Z,4.00
2023-01-09T02:33:04.893Z,4.10
2023-01-09T02:34:05.078Z,3.70
2023-01-09T02:35:05.018Z,3.70
2023-01-09T02:36:04.866Z,3.90
2023-01-09T02:37:04.873Z,4.20
2023-01-09T02:38:04.845Z,3.80
2023-01-09T02:39:04.826Z,3.90
2023-01-09T02:40:04.835Z,3.50
2023-01-09T02:41:04.813Z,4.00
2023-01-09T02:42:04.814Z,4.00
2023-01-09T02:43:04.797Z,4.00
2023-01-09T02:44:04.773Z,3.50
2023-01-09T02:45:04.833Z,3.90
2023-01-09T02:46:04.776Z,4.10
2023-01-09T02:47:04.763Z,3.50
2023-01-09T02:48:04.724Z,3.90
2023-01-09T02:49:04.863Z,3.70
2023-01-09T02:50:04.703Z,3.20
2023-01-09T02:51:04.713Z,3.50
2023-01-09T02:52:04.702Z,3.70
2023-01-09T02:53:04.662Z,3.20
2023-01-09T02:54:04.674Z,3.30
2023-01-09T02:55:04.734Z,3.30
2023-01-09T02:56:04.910Z,3.60
2023-01-09T02:57:04.634Z,3.80
2023-01-09T02:58:04.881Z,3.90
2023-01-09T02:59:04.611Z,3.70
2023-01-09T03:00:04.864Z,3.20
2023-01-09T03:01:04.665Z,3.40
2023-01-09T03:02:04.722Z,3.20
2023-01-09T03:03:04.593Z,3.20
2023-01-09T03:04:04.817Z,3.70
2023-01-09T03:05:04.541Z,3.40
2023-01-09T03:06:04.538Z,3.10
2023-01-09T03:07:04.552Z,3.30
2023-01-09T03:08:04.513Z,3.20
2023-01-09T03:09:04.504Z,3.00
2023-01-09T03:10:04.493Z,3.20
2023-01-09T03:11:04.482Z,3.20
2023-01-09T03:12:04.476Z,3.20
2023-01-09T03:13:04.501Z,3.20
2023-01-09T03:14:04.439Z,3.40
2023-01-09T03:15:04.427Z,3.40
2023-01-09T03:16:04.981Z,2.90
2023-01-09T03:17:04.440Z,3.00
2023-01-09T03:18:05.351Z,2.90
2023-01-09T03:19:04.398Z,2.60
2023-01-09T03:20:04.408Z,2.70
2023-01-09T03:21:04.392Z,2.60
2023-01-09T03:22:04.364Z,2.20
2023-01-09T03:23:04.355Z,2.40
2023-01-09T03:24:04.340Z,2.90
2023-01-09T03:25:04.325Z,2.30
2023-01-09T03:26:04.326Z,2.40
2023-01-09T03:27:04.313Z,2.60
2023-01-09T03:28:04.308Z,2.50
2023-01-09T03:29:04.285Z,2.60
2023-01-09T03:30:04.263Z,2.30
2023-01-09T03:31:04.270Z,2.60
2023-01-09T03:32:04.267Z,2.60
2023-01-09T03:33:04.228Z,2.40
2023-01-09T03:34:04.213Z,3.00
2023-01-09T03:35:04.960Z,2.40
2023-01-09T03:36:04.207Z,2.40
2023-01-09T03:37:04.216Z,2.60
2023-01-09T03:38:05.645Z,2.40
2023-01-09T03:39:04.166Z,2.20
2023-01-09T03:40:04.150Z,2.30
2023-01-09T03:41:04.901Z,2.50
2023-01-09T03:42:04.137Z,2.00
2023-01-09T03:43:04.134Z,2.20
2023-01-09T03:44:04.114Z,2.30
2023-01-09T03:45:04.104Z,2.40
2023-01-09T03:46:04.118Z,2.40
2023-01-09T03:47:04.097Z,2.30
2023-01-09T03:48:04.068Z,2.50
2023-01-09T03:49:04.074Z,3.10
2023-01-09T03:50:04.047Z,2.20
2023-01-09T03:51:04.051Z,2.70
2023-01-09T03:52:04.060Z,2.30
2023-01-09T03:53:04.020Z,2.50
2023-01-09T03:54:03.997Z,2.50
2023-01-09T03:55:03.995Z,2.70
2023-01-09T03:56:03.979Z,2.40
2023-01-09T03:57:03.978Z,2.80
2023-01-09T03:58:03.985Z,2.30
2023-01-09T03:59:04.014Z,2.40
2023-01-09T04:00:03.929Z,2.40
2023-01-09T04:01:04.081Z,2.70
2023-01-09T04:02:04.287Z,2.30
2023-01-09T04:03:03.923Z,2.30
2023-01-09T04:04:03.962Z,2.30
2023-01-09T04:05:03.910Z,2.40
2023-01-09T04:06:03.865Z,2.30
2023-01-09T04:07:03.877Z,2.40
2023-01-09T04:08:03.848Z,2.60
2023-01-09T04:09:03.833Z,2.50
2023-01-09T04:10:03.817Z,2.50
2023-01-09T04:11:03.797Z,2.30
2023-01-09T04:12:03.835Z,2.10
2023-01-09T04:13:03.781Z,2.40
2023-01-09T04:14:03.797Z,2.40
2023-01-09T04:15:03.759Z,2.40
2023-01-09T04:16:03.798Z,2.30
2023-01-09T04:17:03.756Z,2.40
2023-01-09T04:18:03.771Z,2.20
2023-01-09T04:19:04.066Z,2.40
2023-01-09T04:20:03.721Z,2.50
2023-01-09T04:21:03.730Z,2.30
2023-01-09T04:22:03.720Z,2.10
2023-01-09T04:23:03.699Z,2.50
2023-01-09T04:24:03.674Z,2.30
2023-01-09T04:25:03.666Z,2.20
2023-01-09T04:26:03.653Z,2.30
2023-01-09T04:27:03.661Z,2.00
2023-01-09T04:28:03.637Z,2.20
2023-01-09T04:29:03.617Z,2.40
2023-01-09T04:30:04.290Z,2.30
2023-01-09T04:31:03.961Z,2.10
2023-01-09T04:32:03.605Z,2.10
2023-01-09T04:33:03.590Z,2.20
2023-01-09T04:34:03.584Z,2.50
2023-01-09T04:35:03.536Z,2.40
2023-01-09T04:36:03.532Z,2.20
2023-01-09T04:37:03.521Z,2.20
2023-01-09T04:38:03.532Z,2.20
2023-01-09T04:39:03.504Z,2.10
2023-01-09T04:40:03.496Z,2.30
2023-01-09T04:41:03.486Z,2.00
2023-01-09T04:42:03.485Z,2.30
2023-01-09T04:43:03.495Z,2.30
2023-01-09T04:44:03.477Z,2.00
2023-01-09T04:45:03.435Z,1.90
2023-01-09T04:46:03.506Z,2.10
2023-01-09T04:47:03.413Z,2.20
2023-01-09T04:48:03.439Z,2.60
2023-01-09T04:49:03.401Z,2.10
2023-01-09T04:50:03.414Z,2.30
2023-01-09T04:51:03.361Z,2.10
2023-01-09T04:52:03.369Z,2.10
2023-01-09T04:53:03.377Z,2.00
2023-01-09T04:54:03.333Z,2.00
2023-01-09T04:55:03.336Z,2.10
2023-01-09T04:56:03.318Z,2.10
2023-01-09T04:57:03.311Z,2.70
2023-01-09T04:58:03.345Z,2.30
2023-01-09T04:59:03.279Z,2.30
2023-01-09T05:00:03.279Z,2.30
2023-01-09T05:01:03.372Z,2.20
2023-01-09T05:02:03.469Z,2.30
2023-01-09T05:03:03.246Z,2.40
2023-01-09T05:04:03.257Z,2.30
2023-01-09T05:05:03.210Z,2.50
2023-01-09T05:06:03.217Z,2.30
2023-01-09T05:07:03.183Z,2.70
2023-01-09T05:08:03.189Z,2.50
2023-01-09T05:09:03.171Z,2.90
2023-01-09T05:10:03.621Z,2.20
2023-01-09T05:11:03.722Z,2.70
2023-01-09T05:12:03.238Z,2.60
2023-01-09T05:13:03.160Z,2.40
2023-01-09T05:14:03.115Z,2.60
2023-01-09T05:15:03.112Z,2.40
2023-01-09T05:16:03.111Z,2.20
2023-01-09T05:17:03.076Z,2.70
2023-01-09T05:18:03.086Z,2.90
2023-01-09T05:19:03.590Z,2.50
2023-01-09T05:20:03.061Z,2.60
2023-01-09T05:21:03.039Z,3.00
2023-01-09T05:22:03.027Z,2.70
2023-01-09T05:23:03.033Z,2.70
2023-01-09T05:24:03.004Z,2.60
2023-01-09T05:25:02.997Z,2.80
2023-01-09T05:26:02.985Z,2.30
2023-01-09T05:27:02.967Z,2.50
2023-01-09T05:28:02.975Z,2.20
2023-01-09T05:29:02.948Z,2.30
2023-01-09T05:30:02.975Z,2.50
2023-01-09T05:31:02.917Z,2.20
2023-01-09T05:32:02.903Z,2.40
2023-01-09T05:33:02.912Z,2.70
2023-01-09T05:34:02.887Z,2.30
2023-01-09T05:35:02.883Z,2.50
2023-01-09T05:36:02.893Z,2.60
2023-01-09T05:37:02.854Z,1.80
2023-01-09T05:38:02.891Z,2.30
2023-01-09T05:39:02.852Z,2.40
2023-01-09T05:40:02.836Z,2.50
2023-01-09T05:41:02.818Z,2.20
2023-01-09T05:42:02.813Z,2.40
2023-01-09T05:43:05.563Z,2.50
2023-01-09T05:44:03.558Z,2.50
2023-01-09T05:45:04.585Z,2.60
2023-01-09T05:46:02.762Z,2.30
2023-01-09T05:47:03.083Z,2.60
2023-01-09T05:48:02.753Z,2.60
2023-01-09T05:49:02.719Z,2.40
2023-01-09T05:50:02.718Z,2.90
2023-01-09T05:51:02.709Z,2.60
2023-01-09T05:52:02.693Z,2.20
2023-01-09T05:53:02.858Z,2.80
2023-01-09T05:54:02.674Z,3.00
2023-01-09T05:55:02.653Z,2.70
2023-01-09T05:56:02.676Z,2.50
2023-01-09T05:57:02.631Z,2.60
2023-01-09T05:58:02.645Z,2.60
2023-01-09T05:59:02.630Z,2.30
2023-01-09T06:00:02.602Z,2.70
2023-01-09T06:01:02.597Z,2.70
2023-01-09T06:02:02.663Z,2.60
2023-01-09T06:03:02.614Z,3.50
2023-01-09T06:04:02.556Z,3.00
2023-01-09T06:05:02.569Z,3.30
2023-01-09T06:06:02.546Z,2.80
2023-01-09T06:07:02.528Z,3.00
2023-01-09T06:08:02.530Z,2.50
2023-01-09T06:09:02.503Z,2.60
2023-01-09T06:10:02.496Z,2.70
2023-01-09T06:11:02.486Z,2.90
2023-01-09T06:12:02.472Z,2.70
2023-01-09T06:13:02.477Z,2.60
2023-01-09T06:14:02.451Z,3.70
2023-01-09T06:15:02.433Z,3.20
2023-01-09T06:16:02.597Z,2.30
2023-01-09T06:17:02.429Z,2.50
2023-01-09T06:18:02.428Z,2.80
2023-01-09T06:19:02.392Z,2.80
2023-01-09T06:20:02.398Z,2.70
2023-01-09T06:21:02.364Z,2.60
2023-01-09T06:22:02.356Z,2.50
2023-01-09T06:23:02.346Z,2.40
2023-01-09T06:24:02.342Z,2.80
2023-01-09T06:25:02.338Z,3.00
2023-01-09T06:26:02.313Z,2.90
2023-01-09T06:27:02.306Z,3.00
2023-01-09T06:28:02.310Z,2.60
2023-01-09T06:29:02.321Z,3.00
2023-01-09T06:30:02.265Z,2.80
2023-01-09T06:31:02.380Z,2.90
2023-01-09T06:32:02.244Z,2.60
2023-01-09T06:33:02.503Z,3.20
2023-01-09T06:34:02.245Z,3.10
2023-01-09T06:35:02.219Z,3.20
2023-01-09T06:36:02.336Z,3.10
2023-01-09T06:37:02.187Z,3.00
2023-01-09T06:38:02.192Z,3.00
2023-01-09T06:39:02.161Z,3.00
2023-01-09T06:40:02.176Z,3.10
2023-01-09T06:41:02.137Z,3.20
2023-01-09T06:42:02.134Z,3.10
2023-01-09T06:43:02.146Z,3.00
2023-01-09T06:44:02.122Z,2.70
2023-01-09T06:45:02.101Z,3.20
2023-01-09T06:46:02.111Z,2.90
2023-01-09T06:47:02.077Z,3.00
2023-01-09T06:48:02.103Z,3.00
2023-01-09T06:49:02.064Z,3.40
2023-01-09T06:50:02.067Z,3.10
2023-01-09T06:51:02.058Z,2.70
2023-01-09T06:52:02.025Z,3.40
2023-01-09T06:53:02.037Z,3.40
2023-01-09T06:54:01.999Z,4.20
2023-01-09T06:55:01.983Z,3.90
2023-01-09T06:56:01.990Z,3.30
2023-01-09T06:57:01.986Z,3.20
2023-01-09T06:58:01.975Z,3.70
2023-01-09T06:59:01.946Z,3.10
2023-01-09T07:00:01.973Z,3.50
2023-01-09T07:01:02.106Z,3.30
2023-01-09T07:02:01.965Z,3.10
2023-01-09T07:03:01.922Z,3.90
2023-01-09T07:04:01.955Z,3.20
2023-01-09T07:05:01.894Z,3.60
2023-01-09T07:06:01.897Z,7.00
2023-01-09T07:07:01.866Z,3.40
2023-01-09T07:08:01.867Z,4.00
2023-01-09T07:09:01.832Z,3.40
2023-01-09T07:10:01.824Z,3.50
2023-01-09T07:11:01.815Z,3.40
2023-01-09T07:12:01.810Z,3.50
2023-01-09T07:13:02.012Z,3.50
2023-01-09T07:14:01.783Z,3.50
2023-01-09T07:15:01.766Z,4.00
2023-01-09T07:16:01.826Z,3.90
2023-01-09T07:17:01.747Z,3.70
2023-01-09T07:18:01.764Z,4.40
2023-01-09T07:19:01.722Z,4.40
2023-01-09T07:20:01.707Z,3.40
2023-01-09T07:21:01.706Z,3.80
2023-01-09T07:22:01.696Z,3.90
2023-01-09T07:23:01.705Z,4.60
2023-01-09T07:24:01.685Z,3.50
2023-01-09T07:25:01.665Z,4.20
2023-01-09T07:26:01.660Z,4.00
2023-01-09T07:27:01.638Z,3.80
2023-01-09T07:28:01.619Z,4.20
2023-01-09T07:29:01.626Z,4.10
2023-01-09T07:30:01.616Z,4.20
2023-01-09T07:31:01.637Z,4.40
2023-01-09T07:32:01.583Z,4.20
2023-01-09T07:33:04.002Z,4.30
2023-01-09T07:34:02.313Z,4.50
2023-01-09T07:35:01.545Z,4.80
2023-01-09T07:36:01.541Z,4.40
2023-01-09T07:37:01.537Z,5.00
2023-01-09T07:38:02.045Z,4.40
2023-01-09T07:39:01.556Z,4.70
2023-01-09T07:40:01.519Z,4.50
2023-01-09T07:41:01.509Z,4.70
2023-01-09T07:42:01.629Z,4.60
2023-01-09T07:43:01.475Z,4.80
2023-01-09T07:44:01.529Z,5.10
2023-01-09T07:45:01.461Z,4.70
2023-01-09T07:46:01.494Z,4.70
2023-01-09T07:47:01.427Z,5.50
2023-01-09T07:48:01.405Z,5.30
2023-01-09T07:49:01.417Z,5.10
2023-01-09T07:50:01.424Z,5.10
2023-01-09T07:51:01.378Z,5.20
2023-01-09T07:52:01.354Z,5.20
2023-01-09T07:53:01.356Z,4.90
2023-01-09T07:54:01.362Z,5.60
2023-01-09T07:55:01.345Z,5.40
2023-01-09T07:56:01.317Z,4.40
2023-01-09T07:57:01.302Z,5.10
2023-01-09T07:58:01.301Z,4.90
2023-01-09T07:59:01.295Z,4.90
2023-01-09T08:00:01.318Z,4.30
2023-01-09T08:01:01.299Z,5.20
2023-01-09T08:02:01.308Z,4.80
2023-01-09T08:03:01.279Z,4.70
2023-01-09T08:04:01.237Z,4.60
2023-01-09T08:05:01.220Z,4.90
2023-01-09T08:06:01.223Z,4.60
2023-01-09T08:07:01.206Z,4.70
2023-01-09T08:08:01.215Z,4.30
2023-01-09T08:09:01.196Z,4.90
2023-01-09T08:10:01.166Z,5.00
2023-01-09T08:11:01.149Z,5.60
2023-01-09T08:12:01.139Z,5.10
2023-01-09T08:13:01.129Z,4.80
2023-01-09T08:14:01.144Z,5.10
2023-01-09T08:15:01.135Z,5.00
2023-01-09T08:16:01.173Z,4.90
2023-01-09T08:17:01.080Z,5.80
2023-01-09T08:18:01.097Z,5.50
2023-01-09T08:19:01.077Z,5.60
2023-01-09T08:20:01.084Z,5.70
2023-01-09T08:21:01.038Z,5.70
2023-01-09T08:22:01.029Z,5.50
2023-01-09T08:23:01.020Z,6.00
2023-01-09T08:24:01.038Z,6.40
2023-01-09T08:25:01.035Z,7.00
2023-01-09T08:26:01.520Z,6.70
2023-01-09T08:27:00.974Z,6.60
2023-01-09T08:28:00.969Z,6.20
2023-01-09T08:29:08.528Z,6.60
2023-01-09T08:30:00.939Z,7.00
2023-01-09T08:31:00.931Z,6.90
2023-01-09T08:32:00.925Z,6.90
2023-01-09T08:33:00.908Z,6.30
2023-01-09T08:34:00.936Z,6.40
2023-01-09T08:35:00.945Z,7.00
2023-01-09T08:36:00.943Z,7.40
2023-01-09T08:37:00.882Z,6.60
2023-01-09T08:38:00.862Z,6.70
2023-01-09T08:39:00.872Z,6.10
2023-01-09T08:40:00.836Z,6.50
2023-01-09T08:41:00.820Z,6.90
2023-01-09T08:42:00.808Z,6.90
2023-01-09T08:43:00.906Z,6.70
2023-01-09T08:44:00.805Z,7.00
2023-01-09T08:45:00.786Z,6.90
2023-01-09T08:46:00.825Z,7.00
2023-01-09T08:47:00.772Z,7.00
2023-01-09T08:48:00.760Z,6.20
2023-01-09T08:49:00.772Z,6.60
2023-01-09T08:50:00.740Z,7.20
2023-01-09T08:51:00.742Z,6.50
2023-01-09T08:52:00.702Z,7.10
2023-01-09T08:53:00.711Z,7.10
2023-01-09T08:54:00.701Z,6.30
2023-01-09T08:55:00.686Z,6.70
2023-01-09T08:56:00.660Z,7.00
2023-01-09T08:57:00.672Z,7.00
2023-01-09T08:58:00.658Z,7.20
2023-01-09T08:59:00.659Z,6.00
2023-01-09T09:00:00.612Z,6.90
2023-01-09T09:01:00.631Z,6.60
2023-01-09T09:02:00.642Z,6.70
2023-01-09T09:03:00.708Z,7.10
2023-01-09T09:04:00.592Z,6.50
2023-01-09T09:05:00.564Z,6.40
2023-01-09T09:06:00.552Z,6.80
2023-01-09T09:07:00.539Z,6.20
2023-01-09T09:08:00.537Z,6.20
2023-01-09T09:09:00.532Z,6.10
2023-01-09T09:10:00.531Z,6.60
2023-01-09T09:11:00.511Z,6.30
2023-01-09T09:12:00.508Z,6.90
2023-01-09T09:13:00.471Z,6.60
2023-01-09T09:14:00.491Z,6.90
2023-01-09T09:15:00.478Z,6.80
2023-01-09T09:16:00.461Z,7.20
2023-01-09T09:17:00.422Z,6.80
2023-01-09T09:18:00.421Z,7.40
2023-01-09T09:19:00.416Z,6.90
2023-01-09T09:20:00.395Z,7.10
2023-01-09T09:21:00.378Z,7.20
2023-01-09T09:22:00.378Z,7.30
2023-01-09T09:23:00.349Z,6.90
2023-01-09T09:24:00.354Z,7.00
2023-01-09T09:25:00.375Z,7.50
2023-01-09T09:26:00.369Z,7.90
2023-01-09T09:27:00.328Z,6.70
2023-01-09T09:28:00.316Z,7.10
2023-01-09T09:29:00.328Z,7.00
2023-01-09T09:30:00.292Z,6.20
2023-01-09T09:31:00.351Z,6.80
2023-01-09T09:32:01.040Z,6.80
2023-01-09T09:33:00.259Z,6.90
2023-01-09T09:34:00.254Z,6.60
2023-01-09T09:35:00.223Z,6.50
2023-01-09T09:36:00.218Z,6.50
2023-01-09T09:37:00.284Z,6.30
2023-01-09T09:38:01.238Z,6.20
2023-01-09T09:39:00.208Z,6.40
2023-01-09T09:40:09.833Z,6.50
2023-01-09T09:41:00.165Z,6.60
2023-01-09T09:42:00.142Z,6.60
2023-01-09T09:43:00.151Z,6.40
2023-01-09T09:44:00.153Z,6.20
2023-01-09T09:45:00.154Z,6.40
2023-01-09T09:46:00.145Z,6.10
2023-01-09T09:47:00.095Z,5.70
2023-01-09T09:48:00.118Z,6.30
2023-01-09T09:49:00.080Z,6.90
2023-01-09T09:50:00.061Z,5.90
2023-01-09T09:51:00.072Z,6.80
2023-01-09T09:52:00.051Z,5.80
2023-01-09T09:53:00.030Z,6.20
2023-01-09T09:54:00.067Z,6.50
2023-01-09T09:55:00.002Z,6.20
2023-01-09T09:55:59.998Z,6.60
2023-01-09T09:56:59.986Z,6.80
2023-01-09T09:57:59.998Z,5.80
2023-01-09T09:58:59.984Z,5.90
2023-01-09T09:59:59.953Z,6.60
2023-01-09T10:00:59.943Z,6.20
2023-01-09T10:01:59.923Z,6.20
2023-01-09T10:02:59.933Z,5.70
2023-01-09T10:03:59.976Z,5.50
2023-01-09T10:04:59.905Z,6.00
2023-01-09T10:05:59.884Z,5.90
2023-01-09T10:06:59.872Z,5.80
2023-01-09T10:08:08.717Z,6.10
2023-01-09T10:08:59.874Z,5.90
2023-01-09T10:09:59.847Z,5.80
2023-01-09T10:10:59.832Z,7.00
2023-01-09T10:11:59.813Z,6.20
2023-01-09T10:12:59.831Z,5.60
2023-01-09T10:13:59.824Z,5.80
2023-01-09T10:14:59.787Z,6.10
2023-01-09T10:15:59.797Z,5.60
2023-01-09T10:16:59.773Z,5.80
2023-01-09T10:17:59.754Z,6.20
2023-01-09T10:18:59.774Z,5.60
2023-01-09T10:19:59.747Z,5.90
2023-01-09T10:20:59.716Z,5.60
2023-01-09T10:21:59.705Z,5.60
2023-01-09T10:22:59.703Z,5.60
2023-01-09T10:23:59.708Z,5.60
2023-01-09T10:24:59.672Z,5.80
2023-01-09T10:25:59.659Z,5.10
2023-01-09T10:26:59.651Z,5.60
2023-01-09T10:27:59.646Z,5.60
2023-01-09T10:28:59.643Z,5.50
2023-01-09T10:29:59.638Z,5.30
2023-01-09T10:30:59.674Z,5.10
2023-01-09T10:31:59.611Z,4.90
2023-01-09T10:32:59.592Z,5.30
2023-01-09T10:33:59.651Z,5.10
2023-01-09T10:34:59.566Z,5.20
2023-01-09T10:35:59.558Z,5.90
2023-01-09T10:36:59.713Z,5.30
2023-01-09T10:37:59.533Z,5.80
2023-01-09T10:38:59.536Z,5.40
2023-01-09T10:39:59.543Z,5.20
2023-01-09T10:41:01.692Z,5.80
2023-01-09T10:41:59.488Z,5.40
2023-01-09T10:42:59.589Z,5.60
2023-01-09T10:43:59.468Z,5.20
2023-01-09T10:44:59.497Z,5.30
2023-01-09T10:45:59.437Z,5.30
2023-01-09T10:46:59.449Z,4.90
2023-01-09T10:47:59.432Z,5.50
2023-01-09T10:48:59.458Z,5.00
2023-01-09T10:49:59.390Z,5.10
2023-01-09T10:50:59.392Z,4.70
2023-01-09T10:51:59.379Z,5.20
2023-01-09T10:52:59.360Z,5.20
2023-01-09T10:53:59.378Z,4.40
2023-01-09T10:54:59.343Z,5.00
2023-01-09T10:55:59.324Z,4.80
2023-01-09T10:56:59.313Z,5.00
2023-01-09T10:57:59.323Z,5.30
2023-01-09T10:58:59.322Z,4.70
2023-01-09T10:59:59.284Z,4.50
2023-01-09T11:00:59.284Z,5.30
2023-01-09T11:01:59.455Z,4.40
2023-01-09T11:02:59.435Z,4.60
2023-01-09T11:03:59.251Z,4.80
2023-01-09T11:04:59.224Z,4.90
2023-01-09T11:05:59.212Z,5.50
2023-01-09T11:06:59.202Z,4.80
2023-01-09T11:07:59.201Z,5.20
2023-01-09T11:08:59.209Z,4.90
2023-01-09T11:09:59.165Z,5.30
2023-01-09T11:10:59.160Z,5.10
2023-01-09T11:11:59.158Z,4.80
2023-01-09T11:12:59.181Z,4.20
2023-01-09T11:13:59.154Z,4.70
2023-01-09T11:14:59.112Z,5.20
2023-01-09T11:15:59.137Z,5.10
2023-01-09T11:16:59.102Z,4.70
2023-01-09T11:17:59.079Z,4.90
2023-01-09T11:18:59.089Z,4.60
2023-01-09T11:19:59.063Z,4.90
2023-01-09T11:20:59.080Z,4.30
2023-01-09T11:21:59.045Z,5.40
2023-01-09T11:22:59.043Z,4.00
2023-01-09T11:23:59.051Z,4.90
2023-01-09T11:24:59.009Z,4.50
2023-01-09T11:25:59.013Z,4.10
2023-01-09T11:26:58.993Z,4.70
2023-01-09T11:27:58.971Z,5.00
2023-01-09T11:28:58.977Z,4.80
2023-01-09T11:29:58.969Z,5.30
2023-01-09T11:30:58.934Z,4.90
2023-01-09T11:31:58.919Z,4.60
2023-01-09T11:32:58.915Z,4.90
2023-01-09T11:33:58.931Z,4.80
2023-01-09T11:34:58.896Z,4.90
2023-01-09T11:35:58.885Z,5.00
2023-01-09T11:36:58.948Z,4.90
2023-01-09T11:37:58.859Z,5.20
2023-01-09T11:38:58.878Z,4.40
2023-01-09T11:39:58.874Z,5.00
2023-01-09T11:40:58.820Z,4.80
2023-01-09T11:41:58.819Z,4.60
2023-01-09T11:42:58.803Z,5.00
2023-01-09T11:43:58.815Z,5.10
2023-01-09T11:44:58.791Z,5.00
2023-01-09T11:46:01.637Z,5.00
2023-01-09T11:46:58.800Z,4.70
2023-01-09T11:47:58.748Z,4.80
2023-01-09T11:48:58.883Z,5.40
2023-01-09T11:49:58.728Z,5.20
2023-01-09T11:50:58.709Z,4.90
2023-01-09T11:51:58.718Z,5.60
2023-01-09T11:52:58.698Z,5.40
2023-01-09T11:53:58.675Z,4.80
2023-01-09T11:54:58.681Z,4.80
2023-01-09T11:55:58.654Z,4.60
2023-01-09T11:56:58.653Z,4.90
2023-01-09T11:57:58.647Z,5.10
2023-01-09T11:58:58.628Z,5.20
2023-01-09T11:59:58.654Z,4.90
2023-01-09T12:00:58.632Z,5.00
2023-01-09T12:01:58.641Z,5.00
2023-01-09T12:02:58.598Z,5.30
2023-01-09T12:03:58.582Z,5.60
2023-01-09T12:04:58.588Z,5.10
2023-01-09T12:05:58.548Z,5.20
2023-01-09T12:06:58.540Z,5.80
2023-01-09T12:07:58.539Z,4.90
2023-01-09T12:08:58.510Z,5.60
2023-01-09T12:09:58.533Z,5.40
2023-01-09T12:10:58.489Z,4.90
2023-01-09T12:11:58.477Z,5.40
2023-01-09T12:12:58.469Z,5.00
2023-01-09T12:13:58.491Z,6.50
2023-01-09T12:14:58.461Z,5.00
2023-01-09T12:15:58.504Z,5.40
2023-01-09T12:16:58.422Z,5.60
2023-01-09T12:17:58.424Z,5.70
2023-01-09T12:18:58.403Z,5.60
2023-01-09T12:19:58.405Z,5.50
2023-01-09T12:20:58.380Z,5.90
2023-01-09T12:21:58.373Z,5.40
2023-01-09T12:22:58.410Z,5.20
2023-01-09T12:23:58.342Z,5.70
2023-01-09T12:24:58.376Z,6.00
2023-01-09T12:25:58.329Z,6.30
2023-01-09T12:26:58.312Z,5.60
2023-01-09T12:27:58.299Z,6.00
2023-01-09T12:28:58.316Z,5.60
2023-01-09T12:29:58.296Z,5.90
2023-01-09T12:30:58.276Z,5.90
2023-01-09T12:31:58.351Z,5.70
2023-01-09T12:32:58.257Z,5.70
2023-01-09T12:33:58.243Z,6.10
2023-01-09T12:34:58.243Z,5.60
2023-01-09T12:35:58.212Z,6.10
2023-01-09T12:36:58.237Z,5.60
2023-01-09T12:37:58.200Z,6.60
2023-01-09T12:38:58.186Z,5.80
2023-01-09T12:39:58.190Z,5.60
2023-01-09T12:40:58.210Z,6.60
2023-01-09T12:41:58.141Z,6.00
2023-01-09T12:42:58.131Z,6.10
2023-01-09T12:43:58.127Z,5.90
2023-01-09T12:44:58.125Z,5.60
2023-01-09T12:45:58.130Z,5.20
2023-01-09T12:46:58.086Z,6.20
2023-01-09T12:47:58.088Z,5.80
2023-01-09T12:48:58.069Z,5.80
2023-01-09T12:49:58.076Z,5.70
2023-01-09T12:50:58.052Z,6.50
2023-01-09T12:51:58.049Z,6.10
2023-01-09T12:52:58.025Z,7.10
2023-01-09T12:53:58.022Z,6.40
2023-01-09T12:54:58.034Z,5.60
2023-01-09T12:55:57.985Z,5.90
2023-01-09T12:56:57.990Z,5.70
2023-01-09T12:57:57.974Z,6.70
2023-01-09T12:58:57.968Z,6.50
2023-01-09T12:59:57.975Z,6.70
2023-01-09T13:00:57.969Z,6.60
2023-01-09T13:01:57.946Z,6.60
2023-01-09T13:03:11.278Z,5.90
2023-01-09T13:03:57.987Z,6.10
2023-01-09T13:04:57.918Z,6.60
2023-01-09T13:05:57.873Z,6.10
2023-01-09T13:06:57.873Z,6.10
2023-01-09T13:07:57.860Z,6.60
2023-01-09T13:08:57.846Z,6.20
2023-01-09T13:09:57.853Z,6.80
2023-01-09T13:10:59.889Z,6.50
2023-01-09T13:11:57.813Z,6.60
2023-01-09T13:12:57.799Z,6.40
2023-01-09T13:13:57.788Z,6.00
2023-01-09T13:14:57.787Z,6.10
2023-01-09T13:15:57.833Z,6.20
2023-01-09T13:16:57.759Z,6.50
2023-01-09T13:17:57.742Z,6.50